Time;durP1;ratioP1;P1;durP2;ratioP2;P2;SDS_P1;SDS_P2;PMS_P1;PMS_P2;Temp;Humidity;BMP_temperature;BMP_pressure;BME280_temperature;BME280_humidity;BME280_pressure;Samples;Min_cycle;Max_cycle;Signal;HPM_P1;HPM_P2
2023/08/01 00:01:10;;;;;;;1.77;1.07;;;;;;;17.58;100.00;98691.97;5064481;28;20203;-80
2023/08/01 00:03:38;;;;;;;1.03;1.03;;;;;;;17.58;100.00;98698.09;5065612;28;20221;-80
2023/08/01 00:06:04;;;;;;;1.13;1.00;;;;;;;17.58;100.00;98715.69;5065691;28;20201;-80
2023/08/01 00:08:31;;;;;;;1.63;1.20;;;;;;;17.50;100.00;98710.16;5063028;28;20209;-79
2023/08/01 00:10:59;;;;;;;1.13;1.03;;;;;;;17.54;100.00;98701.06;5065035;28;20271;-80
2023/08/01 00:13:27;;;;;;;2.07;1.33;;;;;;;17.55;100.00;98703.59;5067122;28;20198;-80
2023/08/01 00:15:53;;;;;;;1.10;1.10;;;;;;;17.57;100.00;98701.69;5066861;28;20238;-80
2023/08/01 00:18:19;;;;;;;1.67;1.00;;;;;;;17.57;100.00;98701.69;5067799;28;20202;-79
2023/08/01 00:20:47;;;;;;;0.97;0.90;;;;;;;17.57;100.00;98709.59;5068328;28;20223;-79
2023/08/01 00:23:13;;;;;;;0.90;0.90;;;;;;;17.59;100.00;98701.56;5067549;28;20745;-81
2023/08/01 00:25:40;;;;;;;3.33;1.30;;;;;;;17.56;100.00;98701.78;5066518;28;20202;-80
2023/08/01 00:28:06;;;;;;;2.20;0.87;;;;;;;17.55;100.00;98695.69;5062528;28;20202;-78
2023/08/01 00:30:34;;;;;;;1.00;1.00;;;;;;;17.59;100.00;98696.28;5062824;28;20277;-80
2023/08/01 00:33:01;;;;;;;0.83;0.83;;;;;;;17.62;100.00;98690.75;5061881;28;20255;-79
2023/08/01 00:35:27;;;;;;;0.90;0.90;;;;;;;17.66;100.00;98681.69;5064225;28;20218;-79
2023/08/01 00:37:57;;;;;;;1.67;1.00;;;;;;;17.70;100.00;98685.78;5062407;28;20202;-80
2023/08/01 00:40:28;;;;;;;1.00;0.97;;;;;;;17.71;100.00;98683.97;5063453;28;20223;-79
2023/08/01 00:42:56;;;;;;;1.20;0.90;;;;;;;17.71;100.00;98676.88;5063554;28;20233;-79
2023/08/01 00:45:24;;;;;;;0.93;0.90;;;;;;;17.63;100.00;98672.19;5063767;28;20267;-79
2023/08/01 00:47:54;;;;;;;1.03;0.70;;;;;;;17.67;100.00;98663.06;5075194;28;20209;-78
2023/08/01 00:50:22;;;;;;;0.70;0.70;;;;;;;17.60;100.00;98663.66;5064228;28;20233;-79
2023/08/01 00:52:49;;;;;;;2.90;0.73;;;;;;;17.65;100.00;98669.44;5059286;28;20599;-79
2023/08/01 00:55:18;;;;;;;0.83;0.70;;;;;;;17.53;100.00;98665.94;5061653;28;20209;-78
2023/08/01 00:57:44;;;;;;;1.30;0.83;;;;;;;17.54;100.00;98664.13;5060759;28;20626;-77
2023/08/01 01:00:12;;;;;;;1.57;0.90;;;;;;;17.53;100.00;98652.75;5055973;28;20217;-78
2023/08/01 01:02:39;;;;;;;0.97;0.70;;;;;;;17.56;100.00;98647.25;5061653;28;20237;-80
2023/08/01 01:05:06;;;;;;;2.67;1.13;;;;;;;17.60;100.00;98639.91;5062661;28;20218;-80
2023/08/01 01:07:33;;;;;;;1.83;0.73;;;;;;;17.61;100.00;98633.69;5062044;28;20199;-79
2023/08/01 01:09:59;;;;;;;1.23;0.80;;;;;;;17.61;100.00;98629.25;5062649;28;20230;-80
2023/08/01 01:12:27;;;;;;;4.03;0.80;;;;;;;17.63;100.00;98629.13;5063673;28;20225;-79
2023/08/01 01:14:54;;;;;;;0.70;0.70;;;;;;;17.64;100.00;98617.59;5062920;28;20209;-79
2023/08/01 01:17:20;;;;;;;1.60;0.80;;;;;;;17.70;100.00;98629.50;5061346;28;20202;-80
2023/08/01 01:19:46;;;;;;;0.80;0.80;;;;;;;17.70;100.00;98616.28;5059693;28;20221;-79
2023/08/01 01:22:17;;;;;;;1.80;0.63;;;;;;;17.67;100.00;98612.94;5053804;28;20227;-79
2023/08/01 01:24:44;;;;;;;1.67;0.70;;;;;;;17.65;100.00;98624.56;5063403;28;20198;-80
2023/08/01 01:27:12;;;;;;;1.10;0.60;;;;;;;17.64;100.00;98620.25;5063317;28;20553;-80
2023/08/01 01:29:41;;;;;;;1.37;0.60;;;;;;;17.64;100.00;98631.66;5062341;28;20234;-80
2023/08/01 01:32:08;;;;;;;0.97;0.67;;;;;;;17.69;100.00;98631.28;5063045;28;20201;-80
2023/08/01 01:34:34;;;;;;;2.20;0.57;;;;;;;17.59;100.00;98612.69;5063117;28;20203;-79
2023/08/01 01:37:01;;;;;;;2.90;0.60;;;;;;;17.58;100.00;98608.38;5062418;28;20205;-79
2023/08/01 01:39:31;;;;;;;1.20;0.73;;;;;;;17.63;100.00;98610.66;5061417;28;20218;-79
2023/08/01 01:41:57;;;;;;;0.33;0.33;;;;;;;17.54;100.00;98599.03;5062670;28;20210;-79
2023/08/01 01:44:23;;;;;;;0.60;0.50;;;;;;;17.34;100.00;98573.34;5062653;28;20217;-79
2023/08/01 01:46:50;;;;;;;0.30;0.30;;;;;;;17.33;100.00;98566.41;5063971;28;20214;-80
2023/08/01 01:49:16;;;;;;;1.70;0.30;;;;;;;17.22;100.00;98530.28;5062485;28;20289;-80
2023/08/01 01:51:43;;;;;;;0.80;0.50;;;;;;;17.18;100.00;98518.31;5062357;28;20575;-79
2023/08/01 01:54:09;;;;;;;0.40;0.40;;;;;;;17.25;100.00;98506.34;5062106;28;20195;-80
2023/08/01 01:56:37;;;;;;;1.47;0.40;;;;;;;17.30;100.00;98514.72;5062717;28;20205;-79
2023/08/01 01:59:03;;;;;;;0.43;0.30;;;;;;;17.33;100.00;98518.94;5062127;28;20233;-80
2023/08/01 02:01:30;;;;;;;1.80;0.40;;;;;;;17.37;100.00;98515.09;5063090;28;20209;-79
2023/08/01 02:03:56;;;;;;;1.17;0.47;;;;;;;17.40;100.00;98520.09;5063271;28;20288;-79
2023/08/01 02:06:24;;;;;;;0.50;0.40;;;;;;;17.43;100.00;98519.88;5061830;28;20230;-79
2023/08/01 02:08:51;;;;;;;0.30;0.30;;;;;;;17.46;100.00;98506.44;5060837;28;20235;-79
2023/08/01 02:11:17;;;;;;;0.30;0.30;;;;;;;17.51;100.00;98504.28;5063434;28;20582;-80
2023/08/01 02:13:45;;;;;;;0.40;0.30;;;;;;;17.53;100.00;98512.09;5061463;28;20205;-80
2023/08/01 02:16:12;;;;;;;0.63;0.30;;;;;;;17.57;100.00;98501.16;5060260;28;20211;-78
2023/08/01 02:18:38;;;;;;;0.20;0.20;;;;;;;17.59;100.00;98506.31;5061317;28;20583;-80
2023/08/01 02:21:04;;;;;;;0.27;0.13;;;;;;;17.58;100.00;98497.59;5060949;28;20209;-79
2023/08/01 02:26:53;;;;;;;1.00;0.30;;;;;;;17.60;100.00;98486.88;5051589;28;20205;-80
2023/08/01 02:29:22;;;;;;;0.43;0.20;;;;;;;17.60;100.00;98481.59;5061154;28;20231;-79
2023/08/01 02:31:49;;;;;;;0.43;0.30;;;;;;;17.60;100.00;98482.47;5062453;28;20215;-79
2023/08/01 02:34:15;;;;;;;0.97;0.37;;;;;;;17.59;100.00;98487.84;5058085;28;20213;-79
2023/08/01 02:36:41;;;;;;;1.77;0.47;;;;;;;17.61;100.00;98483.31;5048088;28;20211;-80
2023/08/01 02:39:08;;;;;;;1.17;0.50;;;;;;;17.61;100.00;98475.38;5060760;28;20227;-79
2023/08/01 02:41:35;;;;;;;1.07;0.30;;;;;;;17.59;100.00;98469.38;5060833;28;20227;-79
2023/08/01 02:44:02;;;;;;;1.40;0.30;;;;;;;17.62;100.00;98461.22;5061445;28;20227;-80
2023/08/01 02:46:29;;;;;;;1.77;0.40;;;;;;;17.65;100.00;98458.34;5060718;28;20220;-80
2023/08/01 02:48:56;;;;;;;0.50;0.40;;;;;;;17.64;100.00;98462.78;5053366;28;20261;-79
2023/08/01 02:51:22;;;;;;;4.27;0.40;;;;;;;17.58;100.00;98458.00;5057222;28;20245;-79
2023/08/01 02:53:49;;;;;;;1.53;0.50;;;;;;;17.44;100.00;98450.31;5057841;28;20637;-79
2023/08/01 02:56:15;;;;;;;4.77;0.70;;;;;;;17.35;100.00;98436.09;5059962;28;20263;-79
2023/08/01 02:58:42;;;;;;;1.90;0.60;;;;;;;17.44;100.00;98431.88;5062564;28;20667;-79
2023/08/01 03:01:10;;;;;;;3.63;0.80;;;;;;;17.07;100.00;98426.88;5061953;28;20208;-80
2023/08/01 03:03:41;;;;;;;1.20;0.80;;;;;;;17.10;100.00;98402.91;5061864;28;20291;-80
2023/08/01 03:06:12;;;;;;;1.80;0.60;;;;;;;17.11;100.00;98385.31;5062268;28;20217;-80
2023/08/01 03:08:39;;;;;;;0.70;0.40;;;;;;;17.06;100.00;98388.28;5061755;28;20226;-80
2023/08/01 03:11:06;;;;;;;0.37;0.37;;;;;;;16.91;100.00;98394.75;5060516;28;20217;-79
2023/08/01 03:13:32;;;;;;;2.30;0.33;;;;;;;16.86;100.00;98389.84;5056776;28;20198;-78
2023/08/01 03:15:59;;;;;;;1.73;0.27;;;;;;;16.88;100.00;98387.94;5059606;28;20265;-79
2023/08/01 03:18:25;;;;;;;0.80;0.23;;;;;;;16.58;100.00;98380.56;5060481;28;20205;-79
2023/08/01 03:20:53;;;;;;;0.30;0.20;;;;;;;16.60;100.00;98376.84;5061752;28;20255;-80
2023/08/01 03:23:19;;;;;;;2.87;0.30;;;;;;;16.67;100.00;98371.97;5051751;28;20217;-80
2023/08/01 03:25:46;;;;;;;0.30;0.20;;;;;;;16.80;100.00;98370.03;5059218;28;20207;-79
2023/08/01 03:28:12;;;;;;;1.40;0.10;;;;;;;16.93;100.00;98369.13;5052503;28;20211;-80
2023/08/01 03:30:38;;;;;;;0.20;0.20;;;;;;;17.01;100.00;98378.09;5054942;28;20233;-80
2023/08/01 03:33:05;;;;;;;0.30;0.10;;;;;;;17.02;100.00;98395.59;5059383;28;20201;-78
2023/08/01 03:35:31;;;;;;;0.20;0.10;;;;;;;17.11;100.00;98396.69;5061619;28;20217;-79
2023/08/01 03:37:59;;;;;;;0.30;0.30;;;;;;;17.17;100.00;98404.09;5060797;28;20217;-80
2023/08/01 03:40:25;;;;;;;0.30;0.20;;;;;;;17.09;100.00;98424.97;5060763;28;20295;-80
2023/08/01 03:42:52;;;;;;;0.30;0.30;;;;;;;17.01;100.00;98416.81;5058991;28;20224;-78
2023/08/01 03:45:18;;;;;;;1.30;0.20;;;;;;;17.11;100.00;98401.94;5061661;28;20210;-79
2023/08/01 03:47:47;;;;;;;0.97;0.13;;;;;;;17.11;100.00;98396.69;5062814;28;20197;-79
2023/08/01 03:50:13;;;;;;;2.07;0.33;;;;;;;17.21;100.00;98410.81;5062814;28;20230;-79
2023/08/01 03:52:40;;;;;;;1.10;0.37;;;;;;;17.23;100.00;98408.88;5057668;28;20232;-79
2023/08/01 03:55:08;;;;;;;0.20;0.20;;;;;;;17.28;100.00;98413.78;5060783;28;20577;-79
2023/08/01 03:57:35;;;;;;;1.27;0.43;;;;;;;17.31;100.00;98418.84;5058706;28;20229;-80
2023/08/01 04:00:02;;;;;;;0.87;0.20;;;;;;;17.25;100.00;98416.69;5062313;28;20248;-79
2023/08/01 04:02:29;;;;;;;1.60;0.30;;;;;;;17.23;100.00;98416.78;5064679;28;20270;-80
2023/08/01 04:04:55;;;;;;;0.47;0.30;;;;;;;17.29;100.00;98422.56;5063479;28;20275;-80
2023/08/01 04:07:22;;;;;;;4.43;0.60;;;;;;;17.34;100.00;98420.38;5064221;28;20256;-79
2023/08/01 04:09:48;;;;;;;0.80;0.40;;;;;;;17.37;100.00;98420.16;5030088;28;1024872;-79
2023/08/01 04:12:16;;;;;;;0.80;0.40;;;;;;;17.38;100.00;98425.31;5063947;28;20206;-79
2023/08/01 04:14:43;;;;;;;0.57;0.30;;;;;;;17.42;100.00;98437.28;5057663;28;20265;-79
2023/08/01 04:17:10;;;;;;;0.30;0.20;;;;;;;17.44;100.00;98438.00;5065244;28;20209;-79
2023/08/01 04:19:36;;;;;;;0.50;0.23;;;;;;;17.48;100.00;98438.56;5065367;28;20225;-80
2023/08/01 04:22:03;;;;;;;0.40;0.20;;;;;;;17.48;100.00;98433.28;5065907;28;20213;-79
2023/08/01 04:24:30;;;;;;;0.27;0.27;;;;;;;17.43;100.00;98432.84;5058698;28;20236;-79
2023/08/01 04:26:57;;;;;;;0.20;0.20;;;;;;;17.40;100.00;98431.28;5058916;28;20209;-80
2023/08/01 04:29:25;;;;;;;0.50;0.20;;;;;;;17.33;100.00;98426.63;5065777;28;20219;-79
2023/08/01 04:31:51;;;;;;;0.27;0.27;;;;;;;17.35;100.00;98430.81;5066070;28;20207;-79
2023/08/01 04:34:18;;;;;;;1.40;0.30;;;;;;;17.33;100.00;98416.91;5064456;28;20206;-79
2023/08/01 04:36:44;;;;;;;0.13;0.13;;;;;;;17.34;100.00;98423.84;5066640;28;20205;-79
2023/08/01 04:39:10;;;;;;;0.70;0.20;;;;;;;17.31;100.00;98432.00;5072538;28;20214;-78
2023/08/01 04:41:37;;;;;;;1.17;0.30;;;;;;;17.35;100.00;98429.97;5074217;28;20202;-79
2023/08/01 04:44:04;;;;;;;0.30;0.23;;;;;;;17.37;100.00;98436.81;5076109;28;20229;-79
2023/08/01 04:46:31;;;;;;;0.53;0.20;;;;;;;17.38;100.00;98435.84;5076921;28;20212;-79
2023/08/01 04:48:58;;;;;;;0.50;0.20;;;;;;;17.38;100.00;98440.25;5076832;28;20256;-78
2023/08/01 04:51:25;;;;;;;3.40;0.30;;;;;;;17.40;100.00;98433.06;5077273;28;20199;-78
2023/08/01 04:53:51;;;;;;;0.17;0.13;;;;;;;17.38;100.00;98435.00;5072791;28;20212;-80
2023/08/01 04:56:18;;;;;;;0.33;0.20;;;;;;;17.20;100.00;98439.91;5061411;28;20206;-78
2023/08/01 04:58:44;;;;;;;1.90;0.47;;;;;;;17.23;100.00;98432.63;5063548;28;20221;-79
2023/08/01 05:01:10;;;;;;;0.93;0.20;;;;;;;17.21;100.00;98428.44;5063550;28;20587;-79
2023/08/01 05:03:38;;;;;;;0.87;0.30;;;;;;;17.18;100.00;98433.94;5064754;28;20218;-79
2023/08/01 05:06:05;;;;;;;1.80;0.33;;;;;;;16.91;100.00;98429.88;5063662;28;20613;-79
2023/08/01 05:08:31;;;;;;;0.93;0.37;;;;;;;16.74;100.00;98419.75;5064382;28;20235;-79
2023/08/01 05:10:57;;;;;;;0.43;0.40;;;;;;;16.30;100.00;98405.53;5060150;28;20581;-78
2023/08/01 05:13:24;;;;;;;1.37;0.33;;;;;;;16.43;100.00;98387.84;5050935;28;20265;-80
2023/08/01 05:15:51;;;;;;;0.93;0.37;;;;;;;16.39;100.00;98378.50;5057992;28;20201;-79
2023/08/01 05:18:18;;;;;;;0.97;0.30;;;;;;;16.42;100.00;98375.63;5061756;28;20209;-80
2023/08/01 05:20:45;;;;;;;0.40;0.30;;;;;;;16.31;100.00;98381.69;5060996;28;20225;-79
2023/08/01 05:23:12;;;;;;;0.70;0.40;;;;;;;16.33;100.00;98381.59;5043648;28;20206;-79
2023/08/01 05:25:38;;;;;;;1.83;0.60;;;;;;;16.37;100.00;98398.84;5040579;28;20209;-78
2023/08/01 05:28:05;;;;;;;0.93;0.50;;;;;;;16.44;100.00;98419.31;5056685;28;20220;-79
2023/08/01 05:30:31;;;;;;;0.60;0.60;;;;;;;16.29;100.00;98412.56;5041082;28;20259;-79
2023/08/01 05:32:58;;;;;;;0.90;0.50;;;;;;;16.25;100.00;98425.16;5048311;28;20225;-79
2023/08/01 05:35:24;;;;;;;1.80;0.53;;;;;;;16.05;100.00;98418.75;5060193;28;20229;-79
2023/08/01 05:37:52;;;;;;;0.47;0.47;;;;;;;16.23;100.00;98416.53;5054450;28;20218;-78
2023/08/01 05:40:18;;;;;;;1.30;0.50;;;;;;;16.20;100.00;98429.06;5061521;28;20230;-79
2023/08/01 05:42:45;;;;;;;0.83;0.60;;;;;;;16.06;100.00;98430.94;5061854;28;20204;-79
2023/08/01 05:45:12;;;;;;;0.67;0.67;;;;;;;16.13;100.00;98428.69;5045036;28;20239;-78
2023/08/01 05:47:40;;;;;;;1.17;0.70;;;;;;;16.26;100.00;98424.19;5062032;28;20212;-79
2023/08/01 05:50:07;;;;;;;0.73;0.73;;;;;;;16.37;100.00;98427.81;5045950;28;20225;-79
2023/08/01 05:52:34;;;;;;;0.83;0.80;;;;;;;16.45;100.00;98434.19;5029187;28;20208;-78
2023/08/01 05:55:02;;;;;;;0.90;0.90;;;;;;;16.42;100.00;98452.00;5071668;28;20189;-78
2023/08/01 05:57:28;;;;;;;1.67;1.07;;;;;;;16.40;100.00;98461.81;5076720;28;20218;-78
2023/08/01 05:59:54;;;;;;;1.70;1.10;;;;;;;16.39;100.00;98474.16;5062977;28;20225;-79
2023/08/01 06:02:21;;;;;;;1.10;1.00;;;;;;;16.25;100.00;98472.53;5040956;28;20205;-78
2023/08/01 06:04:48;;;;;;;1.20;1.10;;;;;;;16.05;100.00;98460.84;5053154;28;20225;-78
2023/08/01 06:07:14;;;;;;;1.50;1.40;;;;;;;16.10;100.00;98457.88;5042652;28;20238;-80
2023/08/01 06:09:40;;;;;;;2.50;1.13;;;;;;;16.18;100.00;98458.16;5046624;28;20233;-79
2023/08/01 06:12:08;;;;;;;1.23;1.10;;;;;;;16.15;100.00;98463.63;5059517;28;20205;-77
2023/08/01 06:14:35;;;;;;;1.50;1.00;;;;;;;16.12;100.00;98465.66;5059938;28;20216;-79
2023/08/01 06:17:01;;;;;;;1.80;1.00;;;;;;;16.22;100.00;98467.50;5059330;28;20208;-79
2023/08/01 06:19:28;;;;;;;1.87;1.00;;;;;;;16.00;100.00;98468.22;5059357;28;20228;-79
2023/08/01 06:21:54;;;;;;;1.80;1.23;;;;;;;16.15;100.00;98460.16;5060092;28;20205;-79
2023/08/01 06:24:20;;;;;;;1.20;1.10;;;;;;;16.34;100.00;98454.38;5059405;28;20290;-79
2023/08/01 06:26:47;;;;;;;1.23;1.13;;;;;;;16.23;100.00;98458.66;5058742;28;20213;-79
2023/08/01 06:29:15;;;;;;;1.20;1.07;;;;;;;16.20;100.00;98453.59;5058998;28;20727;-79
2023/08/01 06:31:41;;;;;;;3.93;1.30;;;;;;;16.35;100.00;98449.00;5058995;28;20201;-79
2023/08/01 06:34:07;;;;;;;1.20;1.03;;;;;;;16.50;100.00;98451.44;5055681;28;20620;-79
2023/08/01 06:36:34;;;;;;;0.73;0.73;;;;;;;16.62;100.00;98458.41;5054956;28;20201;-80
2023/08/01 06:39:01;;;;;;;1.23;1.10;;;;;;;16.44;100.00;98452.72;5055211;28;20225;-81
2023/08/01 06:41:28;;;;;;;1.47;0.87;;;;;;;16.39;100.00;98458.34;5054348;28;20211;-81
2023/08/01 06:43:54;;;;;;;1.70;0.67;;;;;;;16.33;100.00;98453.50;5055603;28;20221;-80
2023/08/01 06:46:22;;;;;;;1.10;0.70;;;;;;;16.51;100.00;98451.31;5055846;28;20212;-81
2023/08/01 06:48:49;;;;;;;1.03;0.73;;;;;;;16.55;100.00;98459.81;5056414;28;20229;-79
2023/08/01 06:51:15;;;;;;;0.83;0.70;;;;;;;16.58;100.00;98459.59;5059143;28;20657;-78
2023/08/01 06:53:41;;;;;;;1.70;0.83;;;;;;;16.67;100.00;98465.00;5055480;28;20212;-79
2023/08/01 06:56:08;;;;;;;1.17;0.73;;;;;;;16.71;100.00;98470.88;5055729;28;20683;-81
2023/08/01 06:58:34;;;;;;;1.53;0.97;;;;;;;16.67;100.00;98472.91;5055680;28;20206;-81
2023/08/01 07:01:01;;;;;;;0.73;0.73;;;;;;;16.47;100.00;98452.47;5059383;28;20209;-80
2023/08/01 07:03:28;;;;;;;5.07;0.93;;;;;;;16.26;100.00;98461.03;5064148;28;20223;-81
2023/08/01 07:05:55;;;;;;;2.03;1.00;;;;;;;16.14;100.00;98464.59;5073433;28;20233;-79
2023/08/01 07:08:21;;;;;;;1.40;1.30;;;;;;;16.12;100.00;98457.78;5063556;28;20216;-81
2023/08/01 07:10:48;;;;;;;2.07;1.70;;;;;;;15.89;100.00;98471.63;5059130;28;20260;-81
2023/08/01 07:13:15;;;;;;;2.77;2.00;;;;;;;15.92;100.00;98464.50;5057325;28;20236;-81
2023/08/01 07:15:42;;;;;;;2.70;2.00;;;;;;;15.71;100.00;98470.31;5057589;28;20227;-80
2023/08/01 07:18:08;;;;;;;4.47;2.20;;;;;;;15.90;100.00;98467.22;5055558;28;20242;-81
2023/08/01 07:20:36;;;;;;;3.03;2.50;;;;;;;15.88;100.00;98466.50;5060936;28;20290;-81
2023/08/01 07:23:02;;;;;;;4.40;3.17;;;;;;;16.00;100.00;98472.66;5058979;28;20209;-82
2023/08/01 07:25:29;;;;;;;3.33;2.87;;;;;;;16.18;100.00;98487.09;5058814;28;20229;-82
2023/08/01 07:27:55;;;;;;;3.20;2.83;;;;;;;16.25;100.00;98482.22;5059273;28;20209;-82
2023/08/01 07:30:22;;;;;;;3.40;3.10;;;;;;;16.28;100.00;98489.91;5058407;28;20221;-80
2023/08/01 07:32:48;;;;;;;4.10;3.70;;;;;;;16.26;100.00;98505.81;5058254;28;20259;-81
2023/08/01 07:35:15;;;;;;;4.67;3.17;;;;;;;16.06;100.00;98509.06;5058393;28;20208;-81
2023/08/01 07:37:42;;;;;;;3.80;3.40;;;;;;;15.98;100.00;98503.50;5050962;28;20206;-80
2023/08/01 07:40:10;;;;;;;3.63;3.33;;;;;;;16.03;100.00;98509.25;5060467;28;20228;-82
2023/08/01 07:42:37;;;;;;;4.13;3.33;;;;;;;16.07;100.00;98513.34;5060014;28;20257;-81
2023/08/01 07:45:03;;;;;;;3.83;3.50;;;;;;;16.00;100.00;98505.06;5059958;28;20281;-83
2023/08/01 07:47:29;;;;;;;3.27;2.97;;;;;;;15.99;100.00;98502.53;5058225;28;20207;-80
2023/08/01 07:49:56;;;;;;;4.40;3.50;;;;;;;15.94;100.00;98516.03;5059773;28;20251;-81
2023/08/01 07:52:22;;;;;;;3.87;3.57;;;;;;;16.09;100.00;98511.44;5060446;28;20581;-82
2023/08/01 07:54:52;;;;;;;4.70;4.27;;;;;;;16.10;100.00;98520.22;5057650;28;20212;-80
2023/08/01 07:57:18;;;;;;;5.63;4.07;;;;;;;16.17;100.00;98526.69;5058518;28;20205;-81
2023/08/01 07:59:45;;;;;;;4.37;3.77;;;;;;;16.03;100.00;98541.69;5058182;28;20223;-82
2023/08/01 08:02:11;;;;;;;5.20;3.80;;;;;;;16.01;100.00;98538.31;5058014;28;20202;-82
2023/08/01 08:04:37;;;;;;;5.83;4.53;;;;;;;16.11;100.00;98538.50;5057129;28;20588;-82
2023/08/01 08:07:05;;;;;;;3.60;3.27;;;;;;;16.08;100.00;98554.53;5059303;28;20663;-82
2023/08/01 08:09:31;;;;;;;4.57;4.10;;;;;;;16.20;100.00;98566.81;5058568;28;20233;-79
2023/08/01 08:11:59;;;;;;;4.20;3.80;;;;;;;16.08;100.00;98559.78;5057568;28;20212;-81
2023/08/01 08:14:25;;;;;;;5.20;3.53;;;;;;;16.19;100.00;98566.91;5050203;28;20201;-79
2023/08/01 08:16:52;;;;;;;5.13;4.10;;;;;;;16.23;100.00;98566.59;5057633;28;20213;-80
2023/08/01 08:19:18;;;;;;;3.87;3.57;;;;;;;16.36;100.00;98555.16;5049670;28;20237;-82
2023/08/01 08:21:45;;;;;;;3.90;3.60;;;;;;;16.59;100.00;98553.44;5042560;28;20621;-80
2023/08/01 08:24:11;;;;;;;6.47;3.70;;;;;;;16.62;100.00;98553.22;5058531;28;20208;-81
2023/08/01 08:26:39;;;;;;;7.10;4.10;;;;;;;16.73;100.00;98555.91;5057780;28;20209;-80
2023/08/01 08:29:07;;;;;;;5.03;3.87;;;;;;;16.83;100.00;98577.19;5050323;28;20682;-82
2023/08/01 08:31:33;;;;;;;5.23;4.07;;;;;;;16.86;100.00;98587.47;5057210;28;20212;-80
2023/08/01 08:34:00;;;;;;;7.73;3.93;;;;;;;16.89;100.00;98587.28;5058569;28;20216;-81
2023/08/01 08:36:26;;;;;;;4.40;4.00;;;;;;;16.89;100.00;98595.19;5060199;28;20205;-81
2023/08/01 08:38:52;;;;;;;5.77;4.77;;;;;;;17.03;100.00;98596.78;5059251;28;20225;-80
2023/08/01 08:41:22;;;;;;;4.93;3.70;;;;;;;17.16;100.00;98602.78;5051117;28;20206;-80
2023/08/01 08:43:49;;;;;;;4.97;4.50;;;;;;;17.31;100.00;98603.44;5059597;28;20246;-79
2023/08/01 08:46:17;;;;;;;5.10;3.67;;;;;;;17.45;100.00;98626.94;5059307;28;20272;-81
2023/08/01 08:48:46;;;;;;;5.07;3.77;;;;;;;17.47;100.00;98645.31;5050350;28;20208;-81
2023/08/01 08:51:13;;;;;;;6.30;4.10;;;;;;;17.69;100.00;98639.22;5054166;28;20219;-81
2023/08/01 08:53:41;;;;;;;5.33;3.67;;;;;;;17.77;100.00;98646.53;5055661;28;20219;-82
2023/08/01 08:56:09;;;;;;;6.37;3.67;;;;;;;17.82;100.00;98681.34;5051475;28;20212;-82
2023/08/01 09:01:19;;;;;;;4.50;3.87;;;;;;;17.81;100.00;98706.88;5053465;28;20878;-80
2023/08/01 09:03:46;;;;;;;4.00;2.90;;;;;;;17.62;100.00;98732.97;5055759;28;20209;-80
2023/08/01 09:06:15;;;;;;;4.73;3.60;;;;;;;17.63;100.00;98748.69;5055990;28;20315;-81
2023/08/01 09:08:48;;;;;;;4.17;3.00;;;;;;;17.79;100.00;98729.06;5055955;28;20614;-81
2023/08/01 09:11:15;;;;;;;5.93;3.77;;;;;;;17.95;100.00;98692.66;5055790;28;20213;-81
2023/08/01 09:13:41;;;;;;;4.37;2.77;;;;;;;17.68;100.00;98735.19;5055209;28;20213;-79
2023/08/01 09:16:10;;;;;;;3.70;3.30;;;;;;;17.61;100.00;98724.22;5055300;28;20202;-80
2023/08/01 09:18:49;;;;;;;4.33;3.30;;;;;;;17.50;100.00;98689.06;5053997;28;20281;-80
2023/08/01 09:21:15;;;;;;;3.70;3.33;;;;;;;17.68;100.00;98677.13;5048377;28;20218;-79
2023/08/01 09:23:42;;;;;;;3.80;2.57;;;;;;;17.79;100.00;98682.41;5046924;28;20213;-80
2023/08/01 09:26:13;;;;;;;2.87;2.30;;;;;;;17.76;100.00;98732.81;5054564;28;20226;-79
2023/08/01 09:28:40;;;;;;;2.60;2.27;;;;;;;17.77;99.20;98765.31;5056830;28;20229;-81
2023/08/01 09:31:06;;;;;;;4.33;3.07;;;;;;;17.87;99.28;98784.78;5056689;28;20205;-79
2023/08/01 09:33:39;;;;;;;2.83;2.47;;;;;;;17.93;100.00;98747.38;5055050;28;20209;-80
2023/08/01 09:36:08;;;;;;;5.30;2.50;;;;;;;18.06;100.00;98765.75;5055205;28;20640;-81
2023/08/01 09:38:35;;;;;;;4.80;2.73;;;;;;;18.22;100.00;98729.28;5046481;28;20203;-81
2023/08/01 09:41:02;;;;;;;3.33;2.80;;;;;;;18.36;99.84;98756.44;5056002;28;20240;-82
2023/08/01 09:43:34;;;;;;;3.80;2.70;;;;;;;18.37;98.94;98774.78;5055820;28;20205;-78
2023/08/01 09:46:01;;;;;;;3.10;2.80;;;;;;;18.36;95.24;98807.44;5042050;28;20222;-80
2023/08/01 09:48:28;;;;;;;5.83;2.60;;;;;;;18.45;97.38;98808.53;5052256;28;20213;-81
2023/08/01 09:51:10;;;;;;;3.87;2.80;;;;;;;18.45;95.27;98845.50;5055745;28;20216;-81
2023/08/01 09:53:37;;;;;;;4.13;2.20;;;;;;;18.57;92.61;98884.22;5041778;28;20205;-81
2023/08/01 09:56:04;;;;;;;4.27;2.00;;;;;;;18.66;91.90;98894.06;5055519;28;20285;-80
2023/08/01 09:58:33;;;;;;;3.30;2.00;;;;;;;18.74;90.13;98913.78;5047034;28;20242;-81
2023/08/01 10:01:00;;;;;;;2.47;2.20;;;;;;;18.79;90.75;98930.13;5048340;28;20201;-81
2023/08/01 10:03:28;;;;;;;4.27;2.23;;;;;;;18.82;89.56;98957.19;5049596;28;20239;-80
2023/08/01 10:05:56;;;;;;;3.77;2.10;;;;;;;18.90;87.81;98979.59;5050808;28;20321;-81
2023/08/01 10:08:24;;;;;;;2.93;2.40;;;;;;;19.00;85.76;99023.69;5042590;28;20205;-81
2023/08/01 10:10:51;;;;;;;3.63;1.97;;;;;;;18.84;82.31;99084.84;5052286;28;20217;-81
2023/08/01 10:13:19;;;;;;;3.37;2.20;;;;;;;18.71;84.66;99085.84;5044212;28;20581;-81
2023/08/01 10:15:46;;;;;;;3.67;2.37;;;;;;;18.70;86.35;99045.34;5043696;28;20211;-80
2023/08/01 10:18:13;;;;;;;4.00;2.30;;;;;;;18.88;88.26;98997.38;5035240;28;20320;-82
2023/08/01 10:20:40;;;;;;;3.73;2.73;;;;;;;18.79;86.62;99020.91;5051895;28;20241;-80
2023/08/01 10:23:08;;;;;;;2.37;2.00;;;;;;;18.82;87.97;98996.03;5049074;28;20231;-80
2023/08/01 10:25:37;;;;;;;3.10;2.40;;;;;;;19.03;88.24;98967.94;5055130;28;20237;-81
2023/08/01 10:28:06;;;;;;;3.10;1.70;;;;;;;19.20;88.25;98974.53;5051311;28;20207;-81
2023/08/01 10:30:33;;;;;;;2.77;1.73;;;;;;;19.14;85.48;99022.63;5043138;28;20258;-81
2023/08/01 10:33:01;;;;;;;2.27;1.70;;;;;;;19.03;82.77;99080.81;5055052;28;20211;-81
2023/08/01 10:35:38;;;;;;;3.63;1.87;;;;;;;19.20;84.72;99053.06;5054736;28;20218;-82
2023/08/01 10:38:09;;;;;;;4.80;2.23;;;;;;;19.12;82.28;99095.13;5041366;28;20209;-83
2023/08/01 10:40:39;;;;;;;1.80;1.70;;;;;;;19.11;81.01;99107.53;5056219;28;20225;-83
2023/08/01 10:43:06;;;;;;;2.30;1.87;;;;;;;19.16;80.85;99139.75;5051792;28;20398;-82
2023/08/01 10:45:35;;;;;;;2.30;2.07;;;;;;;19.24;82.49;99100.31;5047467;28;20257;-83
2023/08/01 10:48:11;;;;;;;2.07;1.53;;;;;;;19.38;82.20;99090.50;5049418;28;20210;-82
2023/08/01 10:50:38;;;;;;;3.10;1.90;;;;;;;19.44;80.86;99120.00;5053257;28;20253;-82
2023/08/01 10:53:06;;;;;;;3.10;2.80;;;;;;;19.56;80.56;99133.22;5059403;28;20206;-82
2023/08/01 10:55:51;;;;;;;1.93;1.40;;;;;;;19.42;78.98;99156.31;5055289;28;20203;-82
2023/08/01 10:58:18;;;;;;;2.67;1.70;;;;;;;19.61;77.71;99186.66;5047175;28;20205;-81
2023/08/01 11:00:44;;;;;;;3.93;1.70;;;;;;;19.89;78.32;99190.69;5037036;28;20229;-82
2023/08/01 11:03:11;;;;;;;1.30;1.20;;;;;;;19.87;73.62;99265.94;5051048;28;20198;-80
2023/08/01 11:05:38;;;;;;;4.17;1.33;;;;;;;19.94;74.32;99293.63;5055585;28;20238;-79
2023/08/01 11:08:05;;;;;;;3.37;1.83;;;;;;;20.00;75.07;99272.00;5054408;28;20201;-80
2023/08/01 11:10:33;;;;;;;3.13;2.07;;;;;;;20.21;74.79;99242.97;5052404;28;20241;-80
2023/08/01 11:13:01;;;;;;;2.50;1.23;;;;;;;20.07;71.21;99326.19;5055468;28;20206;-80
2023/08/01 11:15:28;;;;;;;1.23;1.10;;;;;;;20.12;71.60;99345.22;5054621;28;20661;-79
2023/08/01 11:17:55;;;;;;;2.53;1.53;;;;;;;19.80;72.58;99353.81;5054646;28;20198;-79
2023/08/01 11:20:23;;;;;;;2.07;1.50;;;;;;;19.97;71.96;99327.84;5055020;28;20232;-80
2023/08/01 11:22:52;;;;;;;1.97;1.63;;;;;;;19.96;73.14;99334.97;5054905;28;20210;-79
2023/08/01 11:25:18;;;;;;;2.57;1.50;;;;;;;19.96;73.74;99319.06;5054037;28;20231;-79
2023/08/01 11:27:45;;;;;;;2.77;1.93;;;;;;;19.95;74.47;99295.34;5055372;28;20609;-79
2023/08/01 11:30:13;;;;;;;2.00;1.90;;;;;;;20.35;74.99;99248.03;5055432;28;20225;-79
2023/08/01 11:32:40;;;;;;;2.13;2.03;;;;;;;20.50;72.42;99301.66;5054489;28;20290;-79